Terminal Aerodrome Forecast
Issued by NWS Boston, MA

Home | Current Version | Previous Version | Text Only | Print | Product List | Glossary On
Versions: 1 2 3 4 5 6 7 8 9 10 11 12 13 14 15 16 17 18 19 20
000
FTUS41 KBOX 052320
TAFBDL
TAF
KBDL 052320Z 0600/0706 26006KT P6SM BKN050
     FM060400 27005KT P6SM FEW250
     FM060900 33006KT P6SM FEW150
     FM061700 03004KT P6SM SCT200
     FM070100 VRB03KT P6SM OVC120
     FM070400 01004KT P6SM VCSH OVC035=

USA.gov is the U.S. government's official web portal to all federal, state and local government web resources and services.